sensor_id;sensor_type;location;lat;lon;timestamp;pressure;altitude;pressure_sealevel;temperature;humidity
6194;BME280;3130;41.564;23.280;2023-01-27T00:02:26;98036.28;;;3.01;100.00
6194;BME280;3130;41.564;23.280;2023-01-27T00:04:53;98044.59;;;3.05;100.00
6194;BME280;3130;41.564;23.280;2023-01-27T00:07:20;97950.88;;;2.50;100.00
6194;BME280;3130;41.564;23.280;2023-01-27T00:09:47;97846.59;;;1.88;100.00
6194;BME280;3130;41.564;23.280;2023-01-27T00:12:18;97997.63;;;2.80;100.00
6194;BME280;3130;41.564;23.280;2023-01-27T00:15:03;98036.91;;;3.06;100.00
6194;BME280;3130;41.564;23.280;2023-01-27T00:17:32;98035.94;;;3.09;100.00
6194;BME280;3130;41.564;23.280;2023-01-27T00:19:59;97792.25;;;1.60;100.00
6194;BME280;3130;41.564;23.280;2023-01-27T00:22:26;98036.19;;;3.23;100.00
6194;BME280;3130;41.564;23.280;2023-01-27T00:25:10;98024.00;;;3.12;100.00
6194;BME280;3130;41.564;23.280;2023-01-27T00:27:38;98004.25;;;3.00;100.00
6194;BME280;3130;41.564;23.280;2023-01-27T00:30:06;97884.94;;;2.16;100.00
6194;BME280;3130;41.564;23.280;2023-01-27T00:32:35;98049.97;;;3.34;100.00
6194;BME280;3130;41.564;23.280;2023-01-27T00:35:19;98048.75;;;3.43;100.00
6194;BME280;3130;41.564;23.280;2023-01-27T00:37:46;98028.16;;;3.32;100.00
6194;BME280;3130;41.564;23.280;2023-01-27T00:40:15;98056.81;;;3.51;100.00
6194;BME280;3130;41.564;23.280;2023-01-27T00:42:42;98056.44;;;3.60;100.00
6194;BME280;3130;41.564;23.280;2023-01-27T00:45:10;98067.28;;;3.62;100.00
6194;BME280;3130;41.564;23.280;2023-01-27T00:47:56;97888.41;;;2.52;100.00
6194;BME280;3130;41.564;23.280;2023-01-27T00:50:23;98005.63;;;3.26;100.00
6194;BME280;3130;41.564;23.280;2023-01-27T00:52:50;97876.09;;;2.26;100.00
6194;BME280;3130;41.564;23.280;2023-01-27T00:55:17;97787.94;;;1.62;100.00
6194;BME280;3130;41.564;23.280;2023-01-27T00:57:45;97786.84;;;1.49;100.00
6194;BME280;3130;41.564;23.280;2023-01-27T01:00:13;98028.56;;;2.86;100.00
6194;BME280;3130;41.564;23.280;2023-01-27T01:02:40;98026.44;;;2.96;100.00
6194;BME280;3130;41.564;23.280;2023-01-27T01:05:09;97804.34;;;1.72;100.00
6194;BME280;3130;41.564;23.280;2023-01-27T01:07:36;97918.63;;;2.55;100.00
6194;BME280;3130;41.564;23.280;2023-01-27T01:10:03;98014.31;;;3.20;100.00
6194;BME280;3130;41.564;23.280;2023-01-27T01:12:30;97885.03;;;2.33;100.00
6194;BME280;3130;41.564;23.280;2023-01-27T01:14:57;97985.19;;;2.94;100.00
6194;BME280;3130;41.564;23.280;2023-01-27T01:17:24;97980.13;;;2.94;100.00
6194;BME280;3130;41.564;23.280;2023-01-27T01:19:51;97977.53;;;2.77;100.00
6194;BME280;3130;41.564;23.280;2023-01-27T01:22:20;97912.50;;;2.40;100.00
6194;BME280;3130;41.564;23.280;2023-01-27T01:24:47;97982.03;;;2.89;100.00
6194;BME280;3130;41.564;23.280;2023-01-27T01:27:14;97981.44;;;3.02;100.00
6194;BME280;3130;41.564;23.280;2023-01-27T01:29:41;97980.94;;;3.12;100.00
6194;BME280;3130;41.564;23.280;2023-01-27T01:32:08;97975.41;;;3.04;100.00
6194;BME280;3130;41.564;23.280;2023-01-27T01:34:35;97821.75;;;1.98;100.00
6194;BME280;3130;41.564;23.280;2023-01-27T01:37:02;97992.34;;;3.02;100.00
6194;BME280;3130;41.564;23.280;2023-01-27T01:39:31;97986.75;;;2.96;100.00
6194;BME280;3130;41.564;23.280;2023-01-27T01:41:58;98008.31;;;3.23;100.00
6194;BME280;3130;41.564;23.280;2023-01-27T01:44:27;97974.38;;;3.08;100.00
6194;BME280;3130;41.564;23.280;2023-01-27T01:46:54;97994.94;;;3.38;100.00
6194;BME280;3130;41.564;23.280;2023-01-27T01:49:25;97966.66;;;3.11;100.00
6194;BME280;3130;41.564;23.280;2023-01-27T01:51:55;97983.75;;;3.06;100.00
6194;BME280;3130;41.564;23.280;2023-01-27T01:54:25;97798.78;;;1.84;100.00
6194;BME280;3130;41.564;23.280;2023-01-27T01:56:59;97930.53;;;2.71;100.00
6194;BME280;3130;41.564;23.280;2023-01-27T01:59:31;97882.88;;;2.44;100.00
6194;BME280;3130;41.564;23.280;2023-01-27T02:02:02;97944.06;;;2.89;100.00
6194;BME280;3130;41.564;23.280;2023-01-27T02:04:34;97771.25;;;1.96;100.00
6194;BME280;3130;41.564;23.280;2023-01-27T02:07:06;97944.44;;;3.16;100.00
6194;BME280;3130;41.564;23.280;2023-01-27T02:09:35;97947.19;;;3.30;100.00
6194;BME280;3130;41.564;23.280;2023-01-27T02:12:05;97954.06;;;3.45;100.00
6194;BME280;3130;41.564;23.280;2023-01-27T02:14:32;97922.38;;;3.37;100.00
6194;BME280;3130;41.564;23.280;2023-01-27T02:17:01;97936.56;;;3.58;100.00
6194;BME280;3130;41.564;23.280;2023-01-27T02:19:34;97777.22;;;2.49;100.00
6194;BME280;3130;41.564;23.280;2023-01-27T02:22:05;97927.38;;;3.55;100.00
6194;BME280;3130;41.564;23.280;2023-01-27T02:24:39;97932.31;;;3.58;100.00
6194;BME280;3130;41.564;23.280;2023-01-27T02:27:11;97928.59;;;3.65;100.00
6194;BME280;3130;41.564;23.280;2023-01-27T02:29:39;97887.44;;;3.43;100.00
6194;BME280;3130;41.564;23.280;2023-01-27T02:32:06;97925.97;;;3.67;100.00
6194;BME280;3130;41.564;23.280;2023-01-27T02:34:35;97892.97;;;3.51;100.00
6194;BME280;3130;41.564;23.280;2023-01-27T02:37:05;97906.59;;;3.66;100.00
6194;BME280;3130;41.564;23.280;2023-01-27T02:39:38;97892.13;;;3.68;100.00
6194;BME280;3130;41.564;23.280;2023-01-27T02:42:07;97876.94;;;3.68;100.00
6194;BME280;3130;41.564;23.280;2023-01-27T02:44:37;97872.69;;;3.68;100.00
6194;BME280;3130;41.564;23.280;2023-01-27T02:47:04;97894.00;;;3.64;100.00
6194;BME280;3130;41.564;23.280;2023-01-27T02:49:31;97895.84;;;3.61;100.00
6194;BME280;3130;41.564;23.280;2023-01-27T02:51:58;97895.41;;;3.53;100.00
6194;BME280;3130;41.564;23.280;2023-01-27T02:54:26;97897.28;;;3.49;100.00
6194;BME280;3130;41.564;23.280;2023-01-27T02:56:54;97894.91;;;3.46;100.00
6194;BME280;3130;41.564;23.280;2023-01-27T02:59:21;97894.16;;;3.44;100.00
6194;BME280;3130;41.564;23.280;2023-01-27T03:01:50;97896.69;;;3.44;100.00
6194;BME280;3130;41.564;23.280;2023-01-27T03:04:17;97883.03;;;3.47;100.00
6194;BME280;3130;41.564;23.280;2023-01-27T03:06:44;97872.38;;;3.57;100.00
6194;BME280;3130;41.564;23.280;2023-01-27T03:09:11;97768.03;;;3.00;100.00
6194;BME280;3130;41.564;23.280;2023-01-27T03:11:38;97882.66;;;3.71;100.00
6194;BME280;3130;41.564;23.280;2023-01-27T03:14:37;97808.69;;;3.14;100.00
6194;BME280;3130;41.564;23.280;2023-01-27T03:17:23;97852.72;;;3.28;100.00
6194;BME280;3130;41.564;23.280;2023-01-27T03:20:08;97882.00;;;3.51;100.00
6194;BME280;3130;41.564;23.280;2023-01-27T03:22:36;97816.00;;;3.20;100.00
6194;BME280;3130;41.564;23.280;2023-01-27T03:25:03;97835.41;;;3.36;100.00
6194;BME280;3130;41.564;23.280;2023-01-27T03:27:31;97782.97;;;3.04;100.00
6194;BME280;3130;41.564;23.280;2023-01-27T03:29:58;97911.09;;;3.78;100.00
6194;BME280;3130;41.564;23.280;2023-01-27T03:32:27;97892.97;;;3.68;100.00
6194;BME280;3130;41.564;23.280;2023-01-27T03:34:55;97900.56;;;3.85;100.00
6194;BME280;3130;41.564;23.280;2023-01-27T03:37:23;97760.13;;;3.06;100.00
6194;BME280;3130;41.564;23.280;2023-01-27T03:40:09;97886.38;;;3.98;100.00
6194;BME280;3130;41.564;23.280;2023-01-27T03:42:53;97686.94;;;2.68;100.00
6194;BME280;3130;41.564;23.280;2023-01-27T03:45:38;97903.00;;;3.87;100.00
6194;BME280;3130;41.564;23.280;2023-01-27T03:48:24;97906.59;;;3.83;100.00
6194;BME280;3130;41.564;23.280;2023-01-27T03:50:56;97900.72;;;3.82;100.00
6194;BME280;3130;41.564;23.280;2023-01-27T03:53:23;97905.69;;;3.67;100.00
6194;BME280;3130;41.564;23.280;2023-01-27T03:55:50;97910.84;;;3.65;100.00
6194;BME280;3130;41.564;23.280;2023-01-27T03:58:20;97839.44;;;3.23;100.00
6194;BME280;3130;41.564;23.280;2023-01-27T04:00:49;97889.16;;;3.60;100.00
6194;BME280;3130;41.564;23.280;2023-01-27T04:03:17;97918.88;;;3.73;100.00
6194;BME280;3130;41.564;23.280;2023-01-27T04:06:04;97930.28;;;3.82;100.00
6194;BME280;3130;41.564;23.280;2023-01-27T04:08:49;97928.84;;;3.78;100.00
6194;BME280;3130;41.564;23.280;2023-01-27T04:11:16;97923.44;;;3.84;100.00
6194;BME280;3130;41.564;23.280;2023-01-27T04:14:01;97917.34;;;3.54;100.00
6194;BME280;3130;41.564;23.280;2023-01-27T04:16:29;97917.09;;;3.41;100.00
6194;BME280;3130;41.564;23.280;2023-01-27T04:18:57;97915.22;;;3.45;100.00
6194;BME280;3130;41.564;23.280;2023-01-27T04:21:26;97874.00;;;3.24;100.00
6194;BME280;3130;41.564;23.280;2023-01-27T04:23:53;97924.66;;;3.60;100.00
6194;BME280;3130;41.564;23.280;2023-01-27T04:26:20;97826.38;;;2.97;100.00
6194;BME280;3130;41.564;23.280;2023-01-27T04:28:48;97917.25;;;3.72;100.00
6194;BME280;3130;41.564;23.280;2023-01-27T04:31:15;97903.03;;;3.53;100.00
6194;BME280;3130;41.564;23.280;2023-01-27T04:33:43;97857.81;;;3.10;100.00
6194;BME280;3130;41.564;23.280;2023-01-27T04:36:11;97884.38;;;3.37;100.00
6194;BME280;3130;41.564;23.280;2023-01-27T04:38:40;97765.59;;;2.63;100.00
6194;BME280;3130;41.564;23.280;2023-01-27T04:41:07;97885.94;;;3.39;100.00
6194;BME280;3130;41.564;23.280;2023-01-27T04:43:34;97903.38;;;3.79;100.00
6194;BME280;3130;41.564;23.280;2023-01-27T04:46:02;97588.03;;;1.88;100.00
6194;BME280;3130;41.564;23.280;2023-01-27T04:48:29;97629.63;;;2.16;100.00
6194;BME280;3130;41.564;23.280;2023-01-27T04:50:56;97874.63;;;3.63;100.00
6194;BME280;3130;41.564;23.280;2023-01-27T04:53:23;97834.75;;;3.33;100.00
6194;BME280;3130;41.564;23.280;2023-01-27T04:55:52;97785.38;;;3.07;100.00
6194;BME280;3130;41.564;23.280;2023-01-27T04:58:26;97898.97;;;3.83;100.00
6194;BME280;3130;41.564;23.280;2023-01-27T05:00:53;97853.31;;;3.50;100.00
6194;BME280;3130;41.564;23.280;2023-01-27T05:03:20;97959.06;;;4.14;100.00
6194;BME280;3130;41.564;23.280;2023-01-27T05:05:48;97894.38;;;3.74;100.00
6194;BME280;3130;41.564;23.280;2023-01-27T05:08:15;97746.34;;;2.95;100.00
6194;BME280;3130;41.564;23.280;2023-01-27T05:10:42;97760.84;;;3.08;100.00
6194;BME280;3130;41.564;23.280;2023-01-27T05:13:11;97940.25;;;4.18;100.00
6194;BME280;3130;41.564;23.280;2023-01-27T05:15:38;97944.16;;;4.08;100.00
6194;BME280;3130;41.564;23.280;2023-01-27T05:18:05;97796.38;;;3.06;100.00
6194;BME280;3130;41.564;23.280;2023-01-27T05:20:32;97940.75;;;3.93;100.00
6194;BME280;3130;41.564;23.280;2023-01-27T05:22:59;97941.94;;;3.69;100.00
6194;BME280;3130;41.564;23.280;2023-01-27T05:25:41;97908.88;;;3.53;100.00
6194;BME280;3130;41.564;23.280;2023-01-27T05:28:10;97914.44;;;3.61;100.00
6194;BME280;3130;41.564;23.280;2023-01-27T05:30:37;97954.19;;;3.78;100.00
6194;BME280;3130;41.564;23.280;2023-01-27T05:33:04;97962.97;;;3.71;100.00
6194;BME280;3130;41.564;23.280;2023-01-27T05:35:33;97969.50;;;3.58;100.00
6194;BME280;3130;41.564;23.280;2023-01-27T05:38:00;97977.53;;;3.49;100.00
6194;BME280;3130;41.564;23.280;2023-01-27T05:40:27;97863.78;;;2.74;100.00
6194;BME280;3130;41.564;23.280;2023-01-27T05:42:54;97966.22;;;3.20;100.00
6194;BME280;3130;41.564;23.280;2023-01-27T05:45:22;97970.91;;;3.28;100.00
6194;BME280;3130;41.564;23.280;2023-01-27T05:47:49;97910.81;;;2.96;100.00
6194;BME280;3130;41.564;23.280;2023-01-27T05:50:17;97966.06;;;3.42;100.00
6194;BME280;3130;41.564;23.280;2023-01-27T05:52:44;97969.13;;;3.48;100.00
6194;BME280;3130;41.564;23.280;2023-01-27T05:55:11;97930.63;;;3.23;100.00
6194;BME280;3130;41.564;23.280;2023-01-27T05:57:38;97981.47;;;3.54;100.00
6194;BME280;3130;41.564;23.280;2023-01-27T06:00:06;97981.28;;;3.59;100.00
6194;BME280;3130;41.564;23.280;2023-01-27T06:02:35;97959.66;;;3.52;100.00
6194;BME280;3130;41.564;23.280;2023-01-27T06:05:02;97948.34;;;3.59;100.00
6194;BME280;3130;41.564;23.280;2023-01-27T06:07:29;97976.00;;;3.80;100.00
6194;BME280;3130;41.564;23.280;2023-01-27T06:09:56;97973.78;;;3.91;100.00
6194;BME280;3130;41.564;23.280;2023-01-27T06:12:23;97941.28;;;3.30;100.00
6194;BME280;3130;41.564;23.280;2023-01-27T06:14:50;97966.69;;;3.28;100.00
6194;BME280;3130;41.564;23.280;2023-01-27T06:17:18;97970.88;;;3.29;100.00
6194;BME280;3130;41.564;23.280;2023-01-27T06:19:46;97960.88;;;3.26;100.00
6194;BME280;3130;41.564;23.280;2023-01-27T06:22:13;97873.22;;;2.52;100.00
6194;BME280;3130;41.564;23.280;2023-01-27T06:24:40;97823.47;;;2.15;100.00
6194;BME280;3130;41.564;23.280;2023-01-27T06:27:07;97927.09;;;2.91;100.00
6194;BME280;3130;41.564;23.280;2023-01-27T06:29:35;97968.81;;;3.19;100.00
6194;BME280;3130;41.564;23.280;2023-01-27T06:32:02;97968.75;;;3.20;100.00
6194;BME280;3130;41.564;23.280;2023-01-27T06:34:30;97985.19;;;3.30;100.00
6194;BME280;3130;41.564;23.280;2023-01-27T06:36:58;97991.53;;;3.39;100.00
6194;BME280;3130;41.564;23.280;2023-01-27T06:39:25;97993.34;;;3.54;100.00
6194;BME280;3130;41.564;23.280;2023-01-27T06:41:52;97995.34;;;3.47;100.00
6194;BME280;3130;41.564;23.280;2023-01-27T06:44:20;97981.66;;;3.33;100.00
6194;BME280;3130;41.564;23.280;2023-01-27T06:46:47;97879.50;;;2.43;100.00
6194;BME280;3130;41.564;23.280;2023-01-27T06:49:14;97993.88;;;2.88;100.00
6194;BME280;3130;41.564;23.280;2023-01-27T06:51:41;97853.00;;;1.95;100.00
6194;BME280;3130;41.564;23.280;2023-01-27T06:54:10;97967.97;;;2.45;100.00
6194;BME280;3130;41.564;23.280;2023-01-27T06:56:38;97843.72;;;1.57;100.00
6194;BME280;3130;41.564;23.280;2023-01-27T06:59:05;97948.22;;;2.34;100.00
6194;BME280;3130;41.564;23.280;2023-01-27T07:01:32;97739.81;;;1.06;100.00
6194;BME280;3130;41.564;23.280;2023-01-27T07:03:59;97966.13;;;2.48;100.00
6194;BME280;3130;41.564;23.280;2023-01-27T07:06:27;97963.06;;;2.60;100.00
6194;BME280;3130;41.564;23.280;2023-01-27T07:08:57;97790.50;;;1.80;100.00
6194;BME280;3130;41.564;23.280;2023-01-27T07:11:26;97956.66;;;3.08;100.00
6194;BME280;3130;41.564;23.280;2023-01-27T07:13:54;97957.84;;;3.18;100.00
6194;BME280;3130;41.564;23.280;2023-01-27T07:16:21;97963.00;;;3.17;100.00
6194;BME280;3130;41.564;23.280;2023-01-27T07:18:48;97722.19;;;1.63;100.00
6194;BME280;3130;41.564;23.280;2023-01-27T07:21:15;97943.38;;;3.22;100.00
6194;BME280;3130;41.564;23.280;2023-01-27T07:23:43;97937.09;;;3.29;100.00
6194;BME280;3130;41.564;23.280;2023-01-27T07:26:10;97963.09;;;3.68;100.00
6194;BME280;3130;41.564;23.280;2023-01-27T07:28:43;97864.34;;;3.32;100.00
6194;BME280;3130;41.564;23.280;2023-01-27T07:31:10;97755.41;;;2.82;100.00
6194;BME280;3130;41.564;23.280;2023-01-27T07:33:37;97902.72;;;3.76;100.00
6194;BME280;3130;41.564;23.280;2023-01-27T07:36:05;97937.97;;;3.97;100.00
6194;BME280;3130;41.564;23.280;2023-01-27T07:38:32;97971.75;;;4.14;100.00
6194;BME280;3130;41.564;23.280;2023-01-27T07:41:03;97972.06;;;4.25;100.00
6194;BME280;3130;41.564;23.280;2023-01-27T07:43:30;97961.44;;;4.34;100.00
6194;BME280;3130;41.564;23.280;2023-01-27T07:45:59;97943.28;;;4.42;100.00
6194;BME280;3130;41.564;23.280;2023-01-27T07:48:26;97951.59;;;4.28;100.00
6194;BME280;3130;41.564;23.280;2023-01-27T07:50:53;97955.03;;;4.27;100.00
6194;BME280;3130;41.564;23.280;2023-01-27T07:53:20;97956.44;;;4.33;100.00
6194;BME280;3130;41.564;23.280;2023-01-27T07:55:48;97961.91;;;4.25;100.00
6194;BME280;3130;41.564;23.280;2023-01-27T07:58:15;97723.88;;;2.89;100.00
6194;BME280;3130;41.564;23.280;2023-01-27T08:00:42;97947.34;;;4.29;100.00
6194;BME280;3130;41.564;23.280;2023-01-27T08:03:20;97964.50;;;4.24;100.00
6194;BME280;3130;41.564;23.280;2023-01-27T08:05:48;97898.31;;;3.79;100.00
6194;BME280;3130;41.564;23.280;2023-01-27T08:08:16;97935.00;;;3.89;100.00
6194;BME280;3130;41.564;23.280;2023-01-27T08:10:44;97909.44;;;3.60;100.00
6194;BME280;3130;41.564;23.280;2023-01-27T08:13:13;97772.47;;;2.43;100.00
6194;BME280;3130;41.564;23.280;2023-01-27T08:15:41;97983.03;;;3.40;100.00
6194;BME280;3130;41.564;23.280;2023-01-27T08:18:08;97785.94;;;2.06;100.00
6194;BME280;3130;41.564;23.280;2023-01-27T08:20:37;97647.91;;;1.12;100.00
6194;BME280;3130;41.564;23.280;2023-01-27T08:23:04;97962.06;;;3.01;100.00
6194;BME280;3130;41.564;23.280;2023-01-27T08:25:32;97832.75;;;2.15;100.00
6194;BME280;3130;41.564;23.280;2023-01-27T08:27:59;97973.53;;;3.08;100.00
6194;BME280;3130;41.564;23.280;2023-01-27T08:30:26;97971.09;;;3.25;100.00
6194;BME280;3130;41.564;23.280;2023-01-27T08:32:54;97933.72;;;3.11;100.00
6194;BME280;3130;41.564;23.280;2023-01-27T08:35:21;97965.97;;;3.43;100.00
6194;BME280;3130;41.564;23.280;2023-01-27T08:37:49;97807.63;;;2.30;100.00
6194;BME280;3130;41.564;23.280;2023-01-27T08:40:17;97972.41;;;3.50;100.00
6194;BME280;3130;41.564;23.280;2023-01-27T08:42:52;97749.63;;;2.09;100.00
6194;BME280;3130;41.564;23.280;2023-01-27T08:45:19;97958.91;;;3.50;100.00
6194;BME280;3130;41.564;23.280;2023-01-27T08:47:46;97925.06;;;3.34;100.00
6194;BME280;3130;41.564;23.280;2023-01-27T08:52:40;97970.47;;;3.72;100.00
6194;BME280;3130;41.564;23.280;2023-01-27T08:55:09;97793.00;;;2.72;100.00
6194;BME280;3130;41.564;23.280;2023-01-27T08:57:36;97979.72;;;4.07;100.00
6194;BME280;3130;41.564;23.280;2023-01-27T09:00:04;97986.00;;;4.34;100.00
6194;BME280;3130;41.564;23.280;2023-01-27T09:02:32;97971.94;;;4.44;100.00
6194;BME280;3130;41.564;23.280;2023-01-27T09:04:59;97973.38;;;4.65;100.00
6194;BME280;3130;41.564;23.280;2023-01-27T09:07:26;97949.56;;;4.67;100.00
6194;BME280;3130;41.564;23.280;2023-01-27T09:09:53;97811.34;;;3.94;100.00
6194;BME280;3130;41.564;23.280;2023-01-27T09:12:21;97971.69;;;4.81;100.00
6194;BME280;3130;41.564;23.280;2023-01-27T09:14:48;97961.28;;;4.85;100.00
6194;BME280;3130;41.564;23.280;2023-01-27T09:17:16;97928.28;;;4.70;100.00
6194;BME280;3130;41.564;23.280;2023-01-27T09:19:45;97956.63;;;4.93;100.00
6194;BME280;3130;41.564;23.280;2023-01-27T09:22:12;97942.94;;;4.95;100.00
6194;BME280;3130;41.564;23.280;2023-01-27T09:24:39;97948.72;;;4.99;100.00
6194;BME280;3130;41.564;23.280;2023-01-27T09:27:16;97952.13;;;5.13;99.72
6194;BME280;3130;41.564;23.280;2023-01-27T09:29:46;97950.59;;;5.11;99.23
6194;BME280;3130;41.564;23.280;2023-01-27T09:32:13;97914.28;;;4.93;98.08
6194;BME280;3130;41.564;23.280;2023-01-27T09:34:40;97947.47;;;5.21;98.38
6194;BME280;3130;41.564;23.280;2023-01-27T09:37:09;97966.97;;;5.36;98.74
6194;BME280;3130;41.564;23.280;2023-01-27T09:39:40;97835.41;;;4.81;98.26
6194;BME280;3130;41.564;23.280;2023-01-27T09:42:34;97944.97;;;5.51;97.56
6194;BME280;3130;41.564;23.280;2023-01-27T09:48:23;97888.09;;;5.38;97.07
6194;BME280;3130;41.564;23.280;2023-01-27T09:50:58;97938.69;;;5.72;96.99
6194;BME280;3130;41.564;23.280;2023-01-27T09:56:49;97766.59;;;4.86;96.24
6194;BME280;3130;41.564;23.280;2023-01-27T09:59:38;97918.13;;;6.05;96.39
6194;BME280;3130;41.564;23.280;2023-01-27T10:02:20;97812.53;;;5.55;95.56
6194;BME280;3130;41.564;23.280;2023-01-27T10:08:12;97791.47;;;5.67;93.45
6194;BME280;3130;41.564;23.280;2023-01-27T10:11:03;97607.50;;;4.57;92.28
6194;BME280;3130;41.564;23.280;2023-01-27T10:13:57;97577.38;;;4.51;91.89
6194;BME280;3130;41.564;23.280;2023-01-27T10:19:49;97608.44;;;4.70;90.18
6194;BME280;3130;41.564;23.280;2023-01-27T10:22:25;97714.75;;;5.33;90.62
6194;BME280;3130;41.564;23.280;2023-01-27T10:25:11;97697.59;;;5.36;90.24
6194;BME280;3130;41.564;23.280;2023-01-27T10:27:47;97906.19;;;6.76;91.01
6194;BME280;3130;41.564;23.280;2023-01-27T10:30:20;97882.69;;;6.58;90.50
6194;BME280;3130;41.564;23.280;2023-01-27T10:32:56;97870.16;;;6.68;90.22
6194;BME280;3130;41.564;23.280;2023-01-27T10:35:31;97790.75;;;6.35;89.54
6194;BME280;3130;41.564;23.280;2023-01-27T10:38:08;97811.59;;;6.68;88.71
6194;BME280;3130;41.564;23.280;2023-01-27T10:40:46;97903.66;;;7.16;87.03
6194;BME280;3130;41.564;23.280;2023-01-27T10:43:22;97877.97;;;6.93;86.75
6194;BME280;3130;41.564;23.280;2023-01-27T10:45:59;97708.06;;;5.88;86.94
6194;BME280;3130;41.564;23.280;2023-01-27T10:48:36;97906.59;;;7.10;86.82
6194;BME280;3130;41.564;23.280;2023-01-27T10:51:23;97902.63;;;6.92;87.51
6194;BME280;3130;41.564;23.280;2023-01-27T10:53:59;97901.91;;;6.90;88.43
6194;BME280;3130;41.564;23.280;2023-01-27T10:56:34;97648.38;;;5.37;88.88
6194;BME280;3130;41.564;23.280;2023-01-27T10:59:13;97814.50;;;6.35;89.17
6194;BME280;3130;41.564;23.280;2023-01-27T11:01:45;97897.78;;;7.01;89.66
6194;BME280;3130;41.564;23.280;2023-01-27T11:04:24;97843.53;;;6.73;88.87
6194;BME280;3130;41.564;23.280;2023-01-27T11:06:57;97898.31;;;7.06;88.58
6194;BME280;3130;41.564;23.280;2023-01-27T11:09:30;97749.91;;;6.10;87.58
6194;BME280;3130;41.564;23.280;2023-01-27T11:12:02;97793.03;;;6.25;87.65
6194;BME280;3130;41.564;23.280;2023-01-27T11:14:36;97865.75;;;6.57;88.49
6194;BME280;3130;41.564;23.280;2023-01-27T11:17:14;97883.44;;;6.73;88.79
6194;BME280;3130;41.564;23.280;2023-01-27T11:19:48;97737.13;;;5.84;88.47
6194;BME280;3130;41.564;23.280;2023-01-27T11:22:26;97797.69;;;6.19;88.45
6194;BME280;3130;41.564;23.280;2023-01-27T11:25:01;97888.53;;;6.73;88.75
6194;BME280;3130;41.564;23.280;2023-01-27T11:27:48;97578.81;;;4.98;89.30
6194;BME280;3130;41.564;23.280;2023-01-27T11:30:25;97853.13;;;6.42;88.84
6194;BME280;3130;41.564;23.280;2023-01-27T11:32:59;97875.72;;;6.74;88.67
6194;BME280;3130;41.564;23.280;2023-01-27T11:35:28;97826.81;;;6.41;89.29
6194;BME280;3130;41.564;23.280;2023-01-27T11:37:59;97658.72;;;5.20;89.60
6194;BME280;3130;41.564;23.280;2023-01-27T11:40:32;97743.59;;;5.74;89.98
6194;BME280;3130;41.564;23.280;2023-01-27T11:43:03;97548.63;;;4.50;89.44
6194;BME280;3130;41.564;23.280;2023-01-27T11:45:32;97673.97;;;5.20;89.77
6194;BME280;3130;41.564;23.280;2023-01-27T11:48:03;97833.97;;;6.22;90.33
6194;BME280;3130;41.564;23.280;2023-01-27T11:50:34;97863.41;;;6.40;90.56
6194;BME280;3130;41.564;23.280;2023-01-27T11:56:39;97567.75;;;4.42;91.26
6194;BME280;3130;41.564;23.280;2023-01-27T11:59:23;97805.94;;;6.08;91.41
6194;BME280;3130;41.564;23.280;2023-01-27T12:01:56;97842.84;;;6.29;91.71
6194;BME280;3130;41.564;23.280;2023-01-27T12:07:45;97745.47;;;5.86;91.24
6194;BME280;3130;41.564;23.280;2023-01-27T12:10:23;97665.09;;;5.41;90.71
6194;BME280;3130;41.564;23.280;2023-01-27T12:13:00;97822.69;;;6.40;90.81
6194;BME280;3130;41.564;23.280;2023-01-27T12:15:34;97605.28;;;5.22;90.18
6194;BME280;3130;41.564;23.280;2023-01-27T12:18:08;97836.88;;;6.71;89.85
6194;BME280;3130;41.564;23.280;2023-01-27T12:20:39;97653.00;;;5.59;90.31
6194;BME280;3130;41.564;23.280;2023-01-27T12:23:18;97531.72;;;5.06;90.25
6194;BME280;3130;41.564;23.280;2023-01-27T12:25:52;97588.75;;;5.43;89.13
6194;BME280;3130;41.564;23.280;2023-01-27T12:28:30;97730.06;;;6.29;88.62
6194;BME280;3130;41.564;23.280;2023-01-27T12:31:03;97529.53;;;5.00;87.77
6194;BME280;3130;41.564;23.280;2023-01-27T12:33:34;97831.22;;;6.80;87.92
6194;BME280;3130;41.564;23.280;2023-01-27T12:36:10;97725.66;;;6.04;87.71
6194;BME280;3130;41.564;23.280;2023-01-27T12:38:47;97552.75;;;4.94;88.66
6194;BME280;3130;41.564;23.280;2023-01-27T12:41:21;97789.94;;;6.34;89.26
6194;BME280;3130;41.564;23.280;2023-01-27T12:43:53;97673.44;;;5.57;89.79
6194;BME280;3130;41.564;23.280;2023-01-27T12:46:25;97655.19;;;5.37;89.97
6194;BME280;3130;41.564;23.280;2023-01-27T12:49:00;97644.66;;;5.43;90.28
6194;BME280;3130;41.564;23.280;2023-01-27T12:51:37;97661.16;;;5.36;90.70
6194;BME280;3130;41.564;23.280;2023-01-27T12:54:18;97831.38;;;6.50;90.57
6194;BME280;3130;41.564;23.280;2023-01-27T12:56:46;97847.31;;;6.40;90.37
6194;BME280;3130;41.564;23.280;2023-01-27T12:59:17;97663.47;;;5.26;90.63
6194;BME280;3130;41.564;23.280;2023-01-27T13:01:58;97840.69;;;6.37;91.03
6194;BME280;3130;41.564;23.280;2023-01-27T13:04:27;97826.03;;;6.41;91.76
6194;BME280;3130;41.564;23.280;2023-01-27T13:07:02;97832.13;;;6.38;91.44
6194;BME280;3130;41.564;23.280;2023-01-27T13:09:37;97521.72;;;4.48;91.55
6194;BME280;3130;41.564;23.280;2023-01-27T13:12:22;97530.81;;;4.66;91.41
6194;BME280;3130;41.564;23.280;2023-01-27T13:15:14;97809.44;;;6.21;91.85
6194;BME280;3130;41.564;23.280;2023-01-27T13:18:11;97659.75;;;5.32;91.56
6194;BME280;3130;41.564;23.280;2023-01-27T13:20:51;97483.84;;;4.31;91.18
6194;BME280;3130;41.564;23.280;2023-01-27T13:23:36;97846.75;;;6.49;91.22
6194;BME280;3130;41.564;23.280;2023-01-27T13:26:15;97788.78;;;5.98;90.88
6194;BME280;3130;41.564;23.280;2023-01-27T13:32:15;97738.81;;;5.69;91.01
6194;BME280;3130;41.564;23.280;2023-01-27T13:34:53;97536.59;;;4.54;90.97
6194;BME280;3130;41.564;23.280;2023-01-27T13:37:39;97860.94;;;6.39;91.35
6194;BME280;3130;41.564;23.280;2023-01-27T13:40:25;97516.78;;;4.17;91.05
6194;BME280;3130;41.564;23.280;2023-01-27T13:43:10;97856.13;;;6.20;90.93
6194;BME280;3130;41.564;23.280;2023-01-27T13:45:46;97513.97;;;4.07;90.63
6194;BME280;3130;41.564;23.280;2023-01-27T13:52:02;97537.97;;;4.16;91.38
6194;BME280;3130;41.564;23.280;2023-01-27T13:54:48;97866.31;;;6.34;91.45
6194;BME280;3130;41.564;23.280;2023-01-27T14:00:42;97886.41;;;6.25;92.17
6194;BME280;3130;41.564;23.280;2023-01-27T14:06:59;97560.78;;;4.45;92.88
6194;BME280;3130;41.564;23.280;2023-01-27T14:09:40;97690.22;;;5.18;93.30
6194;BME280;3130;41.564;23.280;2023-01-27T14:12:22;97684.75;;;5.24;93.67
6194;BME280;3130;41.564;23.280;2023-01-27T14:15:00;97800.88;;;5.95;93.46